createdAt,value
2023-09-06T00:00:00.936Z,74.18
2023-09-06T00:00:10.957Z,74.18
2023-09-06T00:00:21.000Z,74.27
2023-09-06T00:00:31.079Z,74.27
2023-09-06T00:00:41.206Z,74.27
2023-09-06T00:00:51.339Z,74.27
2023-09-06T00:01:01.325Z,74.27
2023-09-06T00:01:11.450Z,74.27
2023-09-06T00:01:21.374Z,74.27
2023-09-06T00:01:31.388Z,74.27
2023-09-06T00:01:41.546Z,74.27
2023-09-06T00:01:51.600Z,74.27
2023-09-06T00:02:01.607Z,74.27
2023-09-06T00:02:11.630Z,74.27
2023-09-06T00:02:21.662Z,74.27
2023-09-06T00:02:31.699Z,74.27
2023-09-06T00:02:41.744Z,74.27
2023-09-06T00:02:51.793Z,74.37
2023-09-06T00:03:01.847Z,74.37
2023-09-06T00:03:12.064Z,74.37
2023-09-06T00:03:22.025Z,74.37
2023-09-06T00:03:32.069Z,74.37
2023-09-06T00:03:42.162Z,74.48
2023-09-06T00:03:52.348Z,74.37
2023-09-06T00:04:02.426Z,74.37
2023-09-06T00:04:12.468Z,74.37
2023-09-06T00:04:22.559Z,74.48
2023-09-06T00:04:32.643Z,74.48
2023-09-06T00:04:42.769Z,74.48
2023-09-06T00:04:52.925Z,74.48
2023-09-06T00:05:02.896Z,74.48
2023-09-06T00:05:12.961Z,74.48
2023-09-06T00:05:23.043Z,74.48
2023-09-06T00:05:33.076Z,74.48
2023-09-06T00:05:43.688Z,74.48
2023-09-06T00:05:53.132Z,74.57
2023-09-06T00:06:03.183Z,74.57
2023-09-06T00:06:13.211Z,74.57
2023-09-06T00:06:23.325Z,74.57
2023-09-06T00:06:33.386Z,74.57
2023-09-06T00:06:43.431Z,74.48
2023-09-06T00:06:53.424Z,74.48
2023-09-06T00:07:03.520Z,74.48
2023-09-06T00:07:13.553Z,74.57
2023-09-06T00:07:23.577Z,74.57
2023-09-06T00:07:33.640Z,74.57
2023-09-06T00:07:43.662Z,74.57
2023-09-06T00:07:53.684Z,74.57
2023-09-06T00:08:03.736Z,74.57
2023-09-06T00:08:13.779Z,74.57
2023-09-06T00:08:23.840Z,74.57
2023-09-06T00:08:33.868Z,74.57
2023-09-06T00:08:43.895Z,74.68
2023-09-06T00:08:53.941Z,74.68
2023-09-06T00:09:03.982Z,74.68
2023-09-06T00:09:14.030Z,74.68
2023-09-06T00:09:24.087Z,74.68
2023-09-06T00:09:34.166Z,74.68
2023-09-06T00:09:44.210Z,74.77
2023-09-06T00:09:54.234Z,74.77
2023-09-06T00:10:04.292Z,74.88
2023-09-06T00:10:14.327Z,74.88
2023-09-06T00:10:24.384Z,74.88
2023-09-06T00:10:34.405Z,74.88
2023-09-06T00:10:44.497Z,74.98
2023-09-06T00:10:54.524Z,74.98
2023-09-06T00:11:04.581Z,74.98
2023-09-06T00:11:14.593Z,74.98
2023-09-06T00:11:24.635Z,74.98
2023-09-06T00:11:34.660Z,74.98
2023-09-06T00:11:44.672Z,74.98
2023-09-06T00:11:54.682Z,74.98
2023-09-06T00:12:04.715Z,74.98
2023-09-06T00:12:14.764Z,75.08
2023-09-06T00:12:24.846Z,75.08
2023-09-06T00:12:34.873Z,75.08
2023-09-06T00:12:44.955Z,75.08
2023-09-06T00:12:54.982Z,75.08
2023-09-06T00:13:05.054Z,75.08
2023-09-06T00:13:15.095Z,75.08
2023-09-06T00:13:25.118Z,75.08
2023-09-06T00:13:35.157Z,75.08
2023-09-06T00:13:45.160Z,75.08
2023-09-06T00:13:55.204Z,75.08
2023-09-06T00:14:05.229Z,75.08
2023-09-06T00:14:15.263Z,75.08
2023-09-06T00:14:25.308Z,75.08
2023-09-06T00:14:35.325Z,75.08
2023-09-06T00:14:45.354Z,75.08
2023-09-06T00:14:55.426Z,75.08
2023-09-06T00:15:05.476Z,75.08
2023-09-06T00:15:15.509Z,75.08
2023-09-06T00:15:25.548Z,75.08
2023-09-06T00:15:35.634Z,75.08
2023-09-06T00:15:45.720Z,75.18
2023-09-06T00:15:55.796Z,75.18
2023-09-06T00:16:05.962Z,75.18
2023-09-06T00:16:15.846Z,75.18
2023-09-06T00:16:25.939Z,75.18
2023-09-06T00:16:36.062Z,75.18
2023-09-06T00:16:46.042Z,75.18
2023-09-06T00:16:56.110Z,75.18
2023-09-06T00:17:06.161Z,75.18
2023-09-06T00:17:16.181Z,75.18
2023-09-06T00:17:26.252Z,75.18
2023-09-06T00:17:36.357Z,75.18
2023-09-06T00:17:46.458Z,75.18
2023-09-06T00:17:56.486Z,75.18
2023-09-06T00:18:06.542Z,75.18
2023-09-06T00:18:16.543Z,75.27
2023-09-06T00:18:27.002Z,75.27
2023-09-06T00:18:36.572Z,75.27
2023-09-06T00:18:46.658Z,75.18
2023-09-06T00:18:56.705Z,75.18
2023-09-06T00:19:06.750Z,75.27
2023-09-06T00:19:16.752Z,75.27
2023-09-06T00:19:26.792Z,75.18
2023-09-06T00:19:36.858Z,75.18
2023-09-06T00:19:46.944Z,75.18
2023-09-06T00:19:56.977Z,75.18
2023-09-06T00:20:07.016Z,75.18
2023-09-06T00:20:17.047Z,75.18
2023-09-06T00:20:27.084Z,75.18
2023-09-06T00:20:37.109Z,75.18
2023-09-06T00:20:47.140Z,75.18
2023-09-06T00:20:57.159Z,75.18
2023-09-06T00:21:07.199Z,75.18
2023-09-06T00:21:17.220Z,75.27
2023-09-06T00:21:27.261Z,75.27
2023-09-06T00:21:37.305Z,75.27
2023-09-06T00:21:47.437Z,75.27
2023-09-06T00:21:57.513Z,75.18
2023-09-06T00:22:07.544Z,75.18
2023-09-06T00:22:17.586Z,75.18
2023-09-06T00:22:27.626Z,75.18
2023-09-06T00:22:37.662Z,75.18
2023-09-06T00:22:47.693Z,75.18
2023-09-06T00:22:57.732Z,75.27
2023-09-06T00:23:07.786Z,75.27
2023-09-06T00:23:17.812Z,75.27
2023-09-06T00:23:27.855Z,75.27
2023-09-06T00:23:37.879Z,75.27
2023-09-06T00:23:47.932Z,75.27
2023-09-06T00:23:57.963Z,75.27
2023-09-06T00:24:08.001Z,75.31
2023-09-06T00:24:18.051Z,75.27
2023-09-06T00:24:28.131Z,75.18
2023-09-06T00:24:38.180Z,75.18
2023-09-06T00:24:48.217Z,75.18
2023-09-06T00:24:58.295Z,75.27
2023-09-06T00:25:08.309Z,75.18
2023-09-06T00:25:18.365Z,75.27
2023-09-06T00:25:28.386Z,75.27
2023-09-06T00:25:38.431Z,75.18
2023-09-06T00:25:48.452Z,75.27
2023-09-06T00:25:58.543Z,75.27
2023-09-06T00:26:08.568Z,75.27
2023-09-06T00:26:18.602Z,75.18
2023-09-06T00:26:28.652Z,75.18
2023-09-06T00:26:38.734Z,75.27
2023-09-06T00:26:48.772Z,75.27
2023-09-06T00:26:58.802Z,75.27
2023-09-06T00:27:08.826Z,75.27
2023-09-06T00:27:18.842Z,75.31
2023-09-06T00:27:28.924Z,75.27
2023-09-06T00:27:38.951Z,75.27
2023-09-06T00:27:49.073Z,75.21
2023-09-06T00:27:59.116Z,75.18
2023-09-06T00:28:09.117Z,75.18
2023-09-06T00:28:19.143Z,75.21
2023-09-06T00:28:29.532Z,75.21
2023-09-06T00:28:39.201Z,75.18
2023-09-06T00:28:49.292Z,75.21
2023-09-06T00:28:59.354Z,75.21
2023-09-06T00:29:09.367Z,75.21
2023-09-06T00:29:19.407Z,75.21
2023-09-06T00:29:29.429Z,75.21
2023-09-06T00:29:39.453Z,75.21
2023-09-06T00:29:49.504Z,75.21
2023-09-06T00:29:59.521Z,75.31
2023-09-06T00:30:09.552Z,75.21
2023-09-06T00:30:19.634Z,75.21
2023-09-06T00:30:29.631Z,75.21
2023-09-06T00:30:39.791Z,75.21
2023-09-06T00:30:49.755Z,75.21
2023-09-06T00:30:59.794Z,75.21
2023-09-06T00:31:09.850Z,75.21
2023-09-06T00:31:19.941Z,75.21
2023-09-06T00:31:30.091Z,75.21
2023-09-06T00:31:40.037Z,75.21
2023-09-06T00:31:50.070Z,75.21
2023-09-06T00:32:00.154Z,75.21
2023-09-06T00:32:10.191Z,75.21
2023-09-06T00:32:20.227Z,75.31
2023-09-06T00:32:30.246Z,75.31
2023-09-06T00:32:40.298Z,75.31
2023-09-06T00:32:50.338Z,75.31
2023-09-06T00:33:00.441Z,75.31
2023-09-06T00:33:10.377Z,75.31
2023-09-06T00:33:20.390Z,75.31
2023-09-06T00:33:30.447Z,75.31
2023-09-06T00:33:40.405Z,75.31
2023-09-06T00:33:50.494Z,75.31
2023-09-06T00:34:00.507Z,75.31
2023-09-06T00:34:10.557Z,75.42
2023-09-06T00:34:20.580Z,75.42
2023-09-06T00:34:30.613Z,75.42
2023-09-06T00:34:40.649Z,75.42
2023-09-06T00:34:50.670Z,75.42
2023-09-06T00:35:00.716Z,75.42
2023-09-06T00:35:10.748Z,75.51
2023-09-06T00:35:20.776Z,75.51
2023-09-06T00:35:30.817Z,75.51
2023-09-06T00:35:40.870Z,75.51
2023-09-06T00:35:50.981Z,75.51
2023-09-06T00:36:01.004Z,75.51
2023-09-06T00:36:11.044Z,75.62
2023-09-06T00:36:21.087Z,75.62
2023-09-06T00:36:31.157Z,75.62
2023-09-06T00:36:41.182Z,75.71
2023-09-06T00:36:51.250Z,75.71
2023-09-06T00:37:01.318Z,75.71
2023-09-06T00:37:11.324Z,75.71
2023-09-06T00:37:21.345Z,75.71
2023-09-06T00:37:31.375Z,75.71
2023-09-06T00:37:41.429Z,75.82
2023-09-06T00:37:51.459Z,75.82
2023-09-06T00:38:01.535Z,75.82
2023-09-06T00:38:11.638Z,75.82
2023-09-06T00:38:23.837Z,75.82
2023-09-06T00:38:32.139Z,75.82
2023-09-06T00:38:41.800Z,75.82
2023-09-06T00:38:51.823Z,75.82
2023-09-06T00:39:01.846Z,75.82
2023-09-06T00:39:11.882Z,75.82
2023-09-06T00:39:21.964Z,75.82
2023-09-06T00:39:32.017Z,75.82
2023-09-06T00:39:42.171Z,75.82
2023-09-06T00:39:52.254Z,75.82
2023-09-06T00:40:02.304Z,75.82
2023-09-06T00:40:12.369Z,75.82
2023-09-06T00:40:22.420Z,75.82
2023-09-06T00:40:32.430Z,75.82
2023-09-06T00:40:42.459Z,75.82
2023-09-06T00:40:52.561Z,75.82
2023-09-06T00:41:02.598Z,75.82
2023-09-06T00:41:12.645Z,75.82
2023-09-06T00:41:22.651Z,75.82
2023-09-06T00:41:32.662Z,75.82
2023-09-06T00:41:42.683Z,75.82
2023-09-06T00:41:52.714Z,75.82
2023-09-06T00:42:02.728Z,75.82
2023-09-06T00:42:12.765Z,75.82
2023-09-06T00:42:22.817Z,75.82
2023-09-06T00:42:32.928Z,75.82
2023-09-06T00:42:42.981Z,75.71
2023-09-06T00:42:53.034Z,75.71
2023-09-06T00:43:03.091Z,75.71
2023-09-06T00:43:13.089Z,75.71
2023-09-06T00:43:23.136Z,75.71
2023-09-06T00:43:33.218Z,75.62
2023-09-06T00:43:43.211Z,75.62
2023-09-06T00:43:53.241Z,75.62
2023-09-06T00:44:03.269Z,75.71
2023-09-06T00:44:13.296Z,75.71
2023-09-06T00:44:23.325Z,75.82
2023-09-06T00:44:33.329Z,75.82
2023-09-06T00:44:43.348Z,75.82
2023-09-06T00:44:53.364Z,75.82
2023-09-06T00:45:03.524Z,75.85
2023-09-06T00:45:13.394Z,75.85
2023-09-06T00:45:23.565Z,75.95
2023-09-06T00:45:33.448Z,75.92
2023-09-06T00:45:43.477Z,75.95
2023-09-06T00:45:53.489Z,75.95
2023-09-06T00:46:13.617Z,75.95
2023-09-06T00:46:23.648Z,75.95
2023-09-06T00:46:33.685Z,75.95
2023-09-06T00:46:43.719Z,75.92
2023-09-06T00:46:53.758Z,75.85
2023-09-06T00:47:03.786Z,75.85
2023-09-06T00:47:13.827Z,75.85
2023-09-06T00:47:23.852Z,75.85
2023-09-06T00:47:33.900Z,75.85
2023-09-06T00:47:43.943Z,75.85
2023-09-06T00:47:54.001Z,75.95
2023-09-06T00:48:04.026Z,75.95
2023-09-06T00:48:14.009Z,75.95
2023-09-06T00:48:24.060Z,75.95
2023-09-06T00:48:34.080Z,75.95
2023-09-06T00:48:44.185Z,75.95
2023-09-06T00:48:54.250Z,75.95
2023-09-06T00:49:04.246Z,76.05
2023-09-06T00:49:14.311Z,76.05
2023-09-06T00:49:24.337Z,76.05
2023-09-06T00:49:34.374Z,76.05
2023-09-06T00:49:44.442Z,76.05
2023-09-06T00:49:54.456Z,76.15
2023-09-06T00:50:04.456Z,76.15
2023-09-06T00:50:14.477Z,76.15
2023-09-06T00:50:24.501Z,76.15
2023-09-06T00:50:34.543Z,76.05
2023-09-06T00:50:44.578Z,76.05
2023-09-06T00:50:54.673Z,76.05
2023-09-06T00:51:04.727Z,76.05
2023-09-06T00:51:14.770Z,76.05
2023-09-06T00:51:24.789Z,76.05
2023-09-06T00:51:34.898Z,76.05
2023-09-06T00:51:45.049Z,76.15
2023-09-06T00:51:55.131Z,76.15
2023-09-06T00:52:05.308Z,76.15
2023-09-06T00:52:15.255Z,76.15
2023-09-06T00:52:25.359Z,76.15
2023-09-06T00:52:35.374Z,76.15
2023-09-06T00:52:45.428Z,76.15
2023-09-06T00:52:55.497Z,76.15
2023-09-06T00:53:05.583Z,76.15
2023-09-06T00:53:15.597Z,76.25
2023-09-06T00:53:25.701Z,76.25
2023-09-06T00:53:35.721Z,76.25
2023-09-06T00:53:45.757Z,76.25
2023-09-06T00:53:55.801Z,76.25
2023-09-06T00:54:05.826Z,76.25
2023-09-06T00:54:15.877Z,76.25
2023-09-06T00:54:25.899Z,76.35
2023-09-06T00:54:35.956Z,76.35
2023-09-06T00:54:45.977Z,76.35
2023-09-06T00:54:55.947Z,76.35
2023-09-06T00:55:05.961Z,76.35
2023-09-06T00:55:15.936Z,76.25
2023-09-06T00:55:25.915Z,76.25
2023-09-06T00:55:45.998Z,76.25
2023-09-06T00:55:56.036Z,76.35
2023-09-06T00:56:06.172Z,76.35
2023-09-06T00:56:16.114Z,76.35
2023-09-06T00:56:26.099Z,76.35
2023-09-06T00:56:36.094Z,76.35
2023-09-06T00:56:46.089Z,76.35
2023-09-06T00:56:56.064Z,76.35
2023-09-06T00:57:16.160Z,76.45
2023-09-06T00:57:26.317Z,76.45
2023-09-06T00:57:36.372Z,76.45
2023-09-06T00:57:46.365Z,76.45
2023-09-06T00:57:56.427Z,76.45
2023-09-06T00:58:06.500Z,76.35
2023-09-06T00:58:16.499Z,76.35
2023-09-06T00:58:26.776Z,76.35
2023-09-06T00:58:36.559Z,76.35
2023-09-06T00:58:46.578Z,76.35
2023-09-06T00:58:56.568Z,76.35
2023-09-06T00:59:06.564Z,76.35
2023-09-06T00:59:16.705Z,76.35
2023-09-06T00:59:26.684Z,76.35
2023-09-06T00:59:36.672Z,76.35
2023-09-06T00:59:46.651Z,76.35
2023-09-06T00:59:56.697Z,76.35
2023-09-06T01:00:06.733Z,76.35
2023-09-06T01:00:16.808Z,76.35
2023-09-06T01:00:26.855Z,76.35
2023-09-06T01:00:37.226Z,76.35
2023-09-06T01:00:47.094Z,76.35
2023-09-06T01:00:57.037Z,76.35
2023-09-06T01:01:07.073Z,76.35
2023-09-06T01:01:17.129Z,76.35
2023-09-06T01:01:27.093Z,76.35
2023-09-06T01:01:37.206Z,76.35
2023-09-06T01:01:47.249Z,76.35
2023-09-06T01:01:57.208Z,76.35
2023-09-06T01:02:07.222Z,76.45
2023-09-06T01:02:17.137Z,76.45
2023-09-06T01:02:27.218Z,76.35
2023-09-06T01:02:37.306Z,76.45
2023-09-06T01:02:47.384Z,76.45
2023-09-06T01:02:57.345Z,76.45
2023-09-06T01:03:07.429Z,76.56
2023-09-06T01:03:17.457Z,76.56
2023-09-06T01:03:27.501Z,76.56
2023-09-06T01:03:37.520Z,76.56
2023-09-06T01:03:47.511Z,76.56
2023-09-06T01:03:57.647Z,76.56
2023-09-06T01:04:07.616Z,76.56
2023-09-06T01:04:17.688Z,76.56
2023-09-06T01:04:27.732Z,76.56
2023-09-06T01:04:37.727Z,76.65
2023-09-06T01:04:47.765Z,76.65
2023-09-06T01:04:57.793Z,76.65
2023-09-06T01:05:07.822Z,76.65
2023-09-06T01:05:17.846Z,76.69
2023-09-06T01:05:27.881Z,76.65
2023-09-06T01:05:37.916Z,76.69
2023-09-06T01:05:47.944Z,76.65
2023-09-06T01:05:57.985Z,76.69
2023-09-06T01:06:08.000Z,76.69
2023-09-06T01:06:18.016Z,76.69
2023-09-06T01:06:28.044Z,76.69
2023-09-06T01:06:38.133Z,76.69
2023-09-06T01:06:48.190Z,76.69
2023-09-06T01:06:58.201Z,76.69
2023-09-06T01:07:08.333Z,76.79
2023-09-06T01:07:18.330Z,76.79
2023-09-06T01:07:28.407Z,76.79
2023-09-06T01:07:38.436Z,76.79
2023-09-06T01:07:48.444Z,76.89
2023-09-06T01:07:58.557Z,76.89
2023-09-06T01:08:08.624Z,76.89
2023-09-06T01:08:18.636Z,76.89
2023-09-06T01:08:28.846Z,76.89
2023-09-06T01:08:38.748Z,76.89
2023-09-06T01:08:48.776Z,76.89
2023-09-06T01:08:58.773Z,77.00
2023-09-06T01:09:08.809Z,77.00
2023-09-06T01:09:18.843Z,76.89
2023-09-06T01:09:28.957Z,76.89
2023-09-06T01:09:38.988Z,76.89
2023-09-06T01:09:49.044Z,77.00
2023-09-06T01:09:59.071Z,76.89
2023-09-06T01:10:09.153Z,77.00
2023-09-06T01:10:19.166Z,77.00
2023-09-06T01:10:29.204Z,77.00
2023-09-06T01:10:39.234Z,77.09
2023-09-06T01:10:49.302Z,77.00
2023-09-06T01:10:59.317Z,77.09
2023-09-06T01:11:09.347Z,77.09
2023-09-06T01:11:19.377Z,77.09
2023-09-06T01:11:29.438Z,77.09
2023-09-06T01:11:39.461Z,77.09
2023-09-06T01:11:49.488Z,77.09
2023-09-06T01:11:59.522Z,77.09
2023-09-06T01:12:09.588Z,77.09
2023-09-06T01:12:19.620Z,77.09
2023-09-06T01:12:29.697Z,77.09
2023-09-06T01:12:39.733Z,77.09
2023-09-06T01:12:49.801Z,77.09
2023-09-06T01:12:59.863Z,77.09
2023-09-06T01:13:09.930Z,77.09
2023-09-06T01:13:19.944Z,77.09
2023-09-06T01:13:29.972Z,77.20
2023-09-06T01:13:40.008Z,77.20
2023-09-06T01:13:50.046Z,77.20
2023-09-06T01:14:00.157Z,77.20
2023-09-06T01:14:10.168Z,77.20
2023-09-06T01:14:20.193Z,77.20
2023-09-06T01:14:30.267Z,77.20
2023-09-06T01:14:40.356Z,77.20
2023-09-06T01:14:50.402Z,77.20
2023-09-06T01:15:00.530Z,77.20
2023-09-06T01:15:10.623Z,77.09
2023-09-06T01:15:20.670Z,77.09
2023-09-06T01:15:30.795Z,77.09
2023-09-06T01:15:40.885Z,77.09
2023-09-06T01:15:51.033Z,77.09
2023-09-06T01:16:00.927Z,77.09
2023-09-06T01:16:11.042Z,77.09
2023-09-06T01:16:21.189Z,77.09
2023-09-06T01:16:31.284Z,77.09
2023-09-06T01:16:41.572Z,77.09
2023-09-06T01:16:51.401Z,77.09
2023-09-06T01:17:01.502Z,77.09
2023-09-06T01:17:11.546Z,77.09
2023-09-06T01:17:21.647Z,77.09
2023-09-06T01:17:31.683Z,77.09
2023-09-06T01:17:41.689Z,77.09
2023-09-06T01:17:51.754Z,77.09
2023-09-06T01:18:01.804Z,77.09
2023-09-06T01:18:11.853Z,77.09
2023-09-06T01:18:21.873Z,77.09
2023-09-06T01:18:31.937Z,77.09
2023-09-06T01:18:41.982Z,77.09
2023-09-06T01:18:52.008Z,77.09
2023-09-06T01:19:02.165Z,77.09
2023-09-06T01:19:12.196Z,77.09
2023-09-06T01:19:22.210Z,77.09
2023-09-06T01:19:32.338Z,77.09
2023-09-06T01:19:42.390Z,77.00
2023-09-06T01:19:52.425Z,77.00
2023-09-06T01:20:02.476Z,77.00
2023-09-06T01:20:12.507Z,77.00
2023-09-06T01:20:22.557Z,77.00
2023-09-06T01:20:32.592Z,77.00
2023-09-06T01:20:42.611Z,77.00
2023-09-06T01:20:52.643Z,77.00
2023-09-06T01:21:02.675Z,77.00
2023-09-06T01:21:12.698Z,77.00
2023-09-06T01:21:22.763Z,77.00
2023-09-06T01:21:32.833Z,77.00
2023-09-06T01:21:42.980Z,77.00
2023-09-06T01:21:52.903Z,77.00
2023-09-06T01:22:02.987Z,77.00
2023-09-06T01:22:13.024Z,77.00
2023-09-06T01:22:23.050Z,77.00
2023-09-06T01:22:33.141Z,77.00
2023-09-06T01:22:43.179Z,77.00
2023-09-06T01:22:53.228Z,77.00
2023-09-06T01:23:03.322Z,77.00
2023-09-06T01:23:13.357Z,77.00
2023-09-06T01:23:23.398Z,77.00
2023-09-06T01:23:33.443Z,77.00
2023-09-06T01:23:43.555Z,76.89
2023-09-06T01:23:53.596Z,76.89
2023-09-06T01:24:03.681Z,76.89
2023-09-06T01:24:13.736Z,77.00
2023-09-06T01:24:23.784Z,77.00
2023-09-06T01:24:33.815Z,77.00
2023-09-06T01:24:43.851Z,77.00
2023-09-06T01:24:53.873Z,77.00
2023-09-06T01:25:03.921Z,77.00
2023-09-06T01:25:13.970Z,77.00
2023-09-06T01:25:24.007Z,77.00
2023-09-06T01:25:34.096Z,77.00
2023-09-06T01:25:44.115Z,77.00
2023-09-06T01:25:54.152Z,77.00
2023-09-06T01:26:04.222Z,77.00
2023-09-06T01:26:14.277Z,77.00
2023-09-06T01:26:24.318Z,77.00
2023-09-06T01:26:34.360Z,77.00
2023-09-06T01:26:44.394Z,77.00
2023-09-06T01:26:54.444Z,77.00
2023-09-06T01:27:04.454Z,77.00
2023-09-06T01:27:14.474Z,77.00
2023-09-06T01:27:24.535Z,77.00
2023-09-06T01:27:34.638Z,77.00
2023-09-06T01:27:44.636Z,76.89
2023-09-06T01:27:54.678Z,77.00
2023-09-06T01:28:04.718Z,76.89
2023-09-06T01:28:14.746Z,76.89
2023-09-06T01:28:24.785Z,77.00
2023-09-06T01:28:34.798Z,77.00
2023-09-06T01:28:44.848Z,77.00
2023-09-06T01:28:54.899Z,77.00
2023-09-06T01:29:04.930Z,77.00
2023-09-06T01:29:14.965Z,77.00
2023-09-06T01:29:25.129Z,77.00
2023-09-06T01:29:35.072Z,77.00
2023-09-06T01:29:45.108Z,77.00
2023-09-06T01:29:55.131Z,77.00
2023-09-06T01:30:05.175Z,77.00
2023-09-06T01:30:15.230Z,77.00
2023-09-06T01:30:25.277Z,77.00
2023-09-06T01:30:35.380Z,77.00
2023-09-06T01:30:45.459Z,77.00
2023-09-06T01:30:55.705Z,77.00
2023-09-06T01:31:05.691Z,77.00
2023-09-06T01:31:15.853Z,77.00
2023-09-06T01:31:25.823Z,77.00
2023-09-06T01:31:35.824Z,77.00
2023-09-06T01:31:45.799Z,77.00
2023-09-06T01:31:55.974Z,77.00
2023-09-06T01:32:05.910Z,77.09
2023-09-06T01:32:15.982Z,77.09
2023-09-06T01:32:26.075Z,77.09
2023-09-06T01:32:36.111Z,77.09
2023-09-06T01:32:46.096Z,77.09
2023-09-06T01:32:56.128Z,77.09
2023-09-06T01:33:06.179Z,77.09
2023-09-06T01:33:16.181Z,77.00
2023-09-06T01:33:26.254Z,77.09
2023-09-06T01:33:36.303Z,77.09
2023-09-06T01:33:46.371Z,77.09
2023-09-06T01:33:56.563Z,77.09
2023-09-06T01:34:06.643Z,77.09
2023-09-06T01:34:16.615Z,77.09
2023-09-06T01:34:26.691Z,77.23
2023-09-06T01:34:36.725Z,77.23
2023-09-06T01:34:46.763Z,77.20
2023-09-06T01:34:56.793Z,77.23
2023-09-06T01:35:06.844Z,77.23
2023-09-06T01:35:16.909Z,77.23
2023-09-06T01:35:26.990Z,77.33
2023-09-06T01:35:37.040Z,77.29
2023-09-06T01:35:47.094Z,77.33
2023-09-06T01:35:57.122Z,77.33
2023-09-06T01:36:07.165Z,77.33
2023-09-06T01:36:17.192Z,77.33
2023-09-06T01:36:27.225Z,77.33
2023-09-06T01:36:37.307Z,77.33
2023-09-06T01:36:47.354Z,77.23
2023-09-06T01:36:57.475Z,77.23
2023-09-06T01:37:07.522Z,77.23
2023-09-06T01:37:17.584Z,77.23
2023-09-06T01:37:27.606Z,77.33
2023-09-06T01:37:37.639Z,77.33
2023-09-06T01:37:47.684Z,77.33
2023-09-06T01:37:57.715Z,77.33
2023-09-06T01:38:07.753Z,77.33
2023-09-06T01:38:17.792Z,77.33
2023-09-06T01:38:28.227Z,77.33
2023-09-06T01:38:37.887Z,77.43
2023-09-06T01:38:47.935Z,77.43
2023-09-06T01:38:58.075Z,77.43
2023-09-06T01:39:08.121Z,77.43
2023-09-06T01:39:18.157Z,77.43
2023-09-06T01:39:28.178Z,77.53
2023-09-06T01:39:38.272Z,77.53
2023-09-06T01:39:48.284Z,77.53
2023-09-06T01:39:58.340Z,77.43
2023-09-06T01:40:08.370Z,77.43
2023-09-06T01:40:18.492Z,77.43
2023-09-06T01:40:28.572Z,77.43
2023-09-06T01:40:38.593Z,77.43
2023-09-06T01:40:48.628Z,77.43
2023-09-06T01:40:58.710Z,77.43
2023-09-06T01:41:08.794Z,77.43
2023-09-06T01:41:18.822Z,77.43
2023-09-06T01:41:28.863Z,77.43
2023-09-06T01:41:38.875Z,77.43
2023-09-06T01:41:48.894Z,77.43
2023-09-06T01:41:58.921Z,77.43
2023-09-06T01:42:08.942Z,77.53
2023-09-06T01:42:18.984Z,77.53
2023-09-06T01:42:29.019Z,77.43
2023-09-06T01:42:39.041Z,77.43
2023-09-06T01:42:49.088Z,77.43
2023-09-06T01:42:59.156Z,77.53
2023-09-06T01:43:09.228Z,77.53
2023-09-06T01:43:19.269Z,77.53
2023-09-06T01:43:29.328Z,77.53
2023-09-06T01:43:39.422Z,77.53
2023-09-06T01:43:49.483Z,77.53
2023-09-06T01:43:59.484Z,77.53
2023-09-06T01:44:09.552Z,77.53
2023-09-06T01:44:19.592Z,77.53
2023-09-06T01:44:29.640Z,77.53
2023-09-06T01:44:39.709Z,77.53
2023-09-06T01:44:49.733Z,77.53
2023-09-06T01:44:59.782Z,77.63
2023-09-06T01:45:09.903Z,77.63
2023-09-06T01:45:19.909Z,77.63
2023-09-06T01:45:29.941Z,77.63
2023-09-06T01:45:40.003Z,77.53
2023-09-06T01:45:50.041Z,77.63
2023-09-06T01:46:00.216Z,77.63
2023-09-06T01:46:10.168Z,77.63
2023-09-06T01:46:20.265Z,77.63
2023-09-06T01:46:30.369Z,77.63
2023-09-06T01:46:40.522Z,77.73
2023-09-06T01:46:50.477Z,77.73
2023-09-06T01:47:00.535Z,77.73
2023-09-06T01:47:10.469Z,77.73
2023-09-06T01:47:20.612Z,77.73
2023-09-06T01:47:30.634Z,77.73
2023-09-06T01:47:40.631Z,77.73
2023-09-06T01:47:50.650Z,77.73
2023-09-06T01:48:00.654Z,77.73
2023-09-06T01:48:10.662Z,77.73
2023-09-06T01:48:20.659Z,77.73
2023-09-06T01:48:30.867Z,77.73
2023-09-06T01:48:40.805Z,77.83
2023-09-06T01:48:50.742Z,77.83
2023-09-06T01:49:00.842Z,77.83
2023-09-06T01:49:10.927Z,77.83
2023-09-06T01:49:20.972Z,77.83
2023-09-06T01:49:30.976Z,77.73
2023-09-06T01:49:41.008Z,77.73
2023-09-06T01:49:51.010Z,77.83
2023-09-06T01:50:01.028Z,77.83
2023-09-06T01:50:11.018Z,77.83
2023-09-06T01:50:21.115Z,77.83
2023-09-06T01:50:31.190Z,77.83
2023-09-06T01:50:41.179Z,77.83
2023-09-06T01:50:51.171Z,77.94
2023-09-06T01:51:01.186Z,77.94
2023-09-06T01:51:11.330Z,77.94
2023-09-06T01:51:21.372Z,77.94
2023-09-06T01:51:31.479Z,77.94
2023-09-06T01:51:41.506Z,77.94
2023-09-06T01:51:51.466Z,77.94
2023-09-06T01:52:01.597Z,78.03
2023-09-06T01:52:11.649Z,78.03
2023-09-06T01:52:21.669Z,78.03
2023-09-06T01:52:31.688Z,78.03
2023-09-06T01:52:41.700Z,77.94
2023-09-06T01:52:51.745Z,77.94
2023-09-06T01:53:01.703Z,77.94
2023-09-06T01:53:11.719Z,77.94
2023-09-06T01:53:21.787Z,77.94
2023-09-06T01:53:31.765Z,77.94
2023-09-06T01:53:41.741Z,78.03
2023-09-06T01:53:51.760Z,78.03
2023-09-06T01:54:01.748Z,78.03
2023-09-06T01:54:11.770Z,78.03
2023-09-06T01:54:21.848Z,78.03
2023-09-06T01:54:31.855Z,78.03
2023-09-06T01:54:41.870Z,78.03
2023-09-06T01:54:51.873Z,78.03
2023-09-06T01:55:01.895Z,78.14
2023-09-06T01:55:11.973Z,78.14
2023-09-06T01:55:21.973Z,78.14
2023-09-06T01:55:31.975Z,78.14
2023-09-06T01:55:41.976Z,78.14
2023-09-06T01:55:51.976Z,78.14
2023-09-06T01:56:01.971Z,78.14
2023-09-06T01:56:11.955Z,78.14
2023-09-06T01:56:32.094Z,78.14
2023-09-06T01:56:42.089Z,78.14
2023-09-06T01:56:52.077Z,78.14
2023-09-06T01:57:02.093Z,78.14
2023-09-06T01:57:12.067Z,78.14
2023-09-06T01:57:22.062Z,78.03
2023-09-06T01:57:42.249Z,78.03
2023-09-06T01:57:52.259Z,78.03
2023-09-06T01:58:02.301Z,78.03
2023-09-06T01:58:12.366Z,78.14
2023-09-06T01:58:22.354Z,78.14
2023-09-06T01:58:32.366Z,78.14
2023-09-06T01:58:42.402Z,78.03
2023-09-06T01:58:52.394Z,78.03
2023-09-06T01:59:02.395Z,78.03
2023-09-06T01:59:12.423Z,78.03
2023-09-06T01:59:22.382Z,78.03
2023-09-06T01:59:32.388Z,78.03
2023-09-06T01:59:52.470Z,78.03
2023-09-06T02:00:02.460Z,78.03
2023-09-06T02:00:12.576Z,78.03
2023-09-06T02:00:22.562Z,78.03
2023-09-06T02:00:32.565Z,78.03
2023-09-06T02:00:42.598Z,78.03
2023-09-06T02:00:52.632Z,78.03
2023-09-06T02:01:02.618Z,78.03
2023-09-06T02:01:12.676Z,78.03
2023-09-06T02:01:22.778Z,78.03
2023-09-06T02:01:32.821Z,78.03
2023-09-06T02:01:42.861Z,78.03
2023-09-06T02:01:52.888Z,78.03
2023-09-06T02:02:02.949Z,78.03
2023-09-06T02:02:13.046Z,78.03
2023-09-06T02:02:23.021Z,78.03
2023-09-06T02:02:33.087Z,78.03
2023-09-06T02:02:43.130Z,78.03
2023-09-06T02:02:53.283Z,78.03
2023-09-06T02:03:03.279Z,78.03
2023-09-06T02:03:13.415Z,78.03
2023-09-06T02:03:23.487Z,78.03
2023-09-06T02:03:33.539Z,78.03
2023-09-06T02:03:43.676Z,78.03
2023-09-06T02:03:53.720Z,78.03
2023-09-06T02:04:03.763Z,78.03
2023-09-06T02:04:13.842Z,78.03
2023-09-06T02:04:23.917Z,78.03
2023-09-06T02:04:33.928Z,78.14
2023-09-06T02:04:43.955Z,78.14
2023-09-06T02:04:53.943Z,78.14
2023-09-06T02:05:03.979Z,78.14
2023-09-06T02:05:14.028Z,78.14
2023-09-06T02:05:24.044Z,78.14
2023-09-06T02:05:34.060Z,78.14
2023-09-06T02:05:44.060Z,78.14
2023-09-06T02:05:54.095Z,78.14
2023-09-06T02:06:04.098Z,78.14
2023-09-06T02:06:14.115Z,78.14
2023-09-06T02:06:24.249Z,78.03
2023-09-06T02:06:34.386Z,78.03
2023-09-06T02:06:44.456Z,78.03
2023-09-06T02:06:54.521Z,78.03
2023-09-06T02:07:04.583Z,78.14
2023-09-06T02:07:14.630Z,78.14
2023-09-06T02:07:24.588Z,78.14
2023-09-06T02:07:34.608Z,78.14
2023-09-06T02:07:44.606Z,78.14
2023-09-06T02:07:54.619Z,78.14
2023-09-06T02:08:04.622Z,78.14
2023-09-06T02:08:14.719Z,78.14
2023-09-06T02:08:24.694Z,78.14
2023-09-06T02:08:34.715Z,78.14
2023-09-06T02:08:44.697Z,78.14
2023-09-06T02:08:54.722Z,78.14
2023-09-06T02:09:04.737Z,78.14
2023-09-06T02:09:14.747Z,78.14
2023-09-06T02:09:24.757Z,78.14
2023-09-06T02:09:34.774Z,78.17
2023-09-06T02:09:44.860Z,78.27
2023-09-06T02:09:54.909Z,78.27
2023-09-06T02:10:04.892Z,78.23
2023-09-06T02:10:14.971Z,78.27